createdAt,value
2019-01-15T00:00:24.147Z,2.70
2019-01-15T00:01:27.686Z,2.70
2019-01-15T00:02:31.231Z,2.70
2019-01-15T00:03:34.765Z,2.70
2019-01-15T00:04:38.362Z,2.70
2019-01-15T00:05:41.901Z,2.70
2019-01-15T00:06:45.434Z,2.70
2019-01-15T00:07:48.901Z,2.70
2019-01-15T00:08:52.443Z,2.70
2019-01-15T00:09:56.023Z,2.70
2019-01-15T00:10:59.492Z,2.70
2019-01-15T00:12:07.828Z,2.70
2019-01-15T00:13:08.222Z,2.70
2019-01-15T00:14:11.762Z,2.70
2019-01-15T00:15:15.495Z,2.70
2019-01-15T00:16:18.964Z,2.70
2019-01-15T00:17:22.497Z,2.70
2019-01-15T00:18:26.046Z,2.70
2019-01-15T00:19:29.578Z,2.70
2019-01-15T00:20:33.082Z,2.70
2019-01-15T00:21:36.627Z,2.70
2019-01-15T00:22:40.166Z,2.70
2019-01-15T00:23:43.697Z,2.70
2019-01-15T00:24:47.243Z,2.70
2019-01-15T00:25:50.833Z,2.70
2019-01-15T00:26:54.298Z,2.70
2019-01-15T00:27:57.838Z,2.70
2019-01-15T00:29:01.306Z,2.70
2019-01-15T00:30:16.410Z,2.70
2019-01-15T00:31:19.937Z,2.70
2019-01-15T00:32:23.470Z,2.70
2019-01-15T00:33:27.010Z,2.70
2019-01-15T00:34:30.474Z,2.70
2019-01-15T00:35:34.014Z,2.70
2019-01-15T00:36:37.582Z,2.70
2019-01-15T00:37:41.190Z,2.70
2019-01-15T00:38:44.733Z,2.70
2019-01-15T00:39:48.290Z,2.80
2019-01-15T00:40:51.830Z,2.80
2019-01-15T00:41:55.422Z,2.80
2019-01-15T00:42:58.974Z,2.80
2019-01-15T00:44:02.512Z,2.80
2019-01-15T00:45:08.998Z,2.80
2019-01-15T00:46:12.542Z,2.80
2019-01-15T00:47:16.124Z,2.80
2019-01-15T00:48:19.658Z,2.80
2019-01-15T00:49:23.123Z,2.70
2019-01-15T00:50:26.661Z,2.70
2019-01-15T00:51:30.206Z,2.80
2019-01-15T00:52:33.790Z,2.80
2019-01-15T00:53:37.329Z,2.80
2019-01-15T00:54:40.801Z,2.70
2019-01-15T00:55:44.342Z,2.70
2019-01-15T00:56:47.886Z,2.70
2019-01-15T00:57:51.466Z,2.70
2019-01-15T00:58:54.936Z,2.70
2019-01-15T00:59:58.473Z,2.80
2019-01-15T01:01:02.017Z,2.80
2019-01-15T01:02:05.562Z,2.80
2019-01-15T01:03:09.203Z,2.70
2019-01-15T01:04:12.743Z,2.70
2019-01-15T01:05:16.630Z,2.70
2019-01-15T01:06:20.138Z,2.70
2019-01-15T01:07:23.670Z,2.70
2019-01-15T01:08:27.209Z,2.70
2019-01-15T01:09:30.754Z,2.70
2019-01-15T01:10:34.371Z,2.70
2019-01-15T01:11:37.955Z,2.70
2019-01-15T01:12:41.566Z,2.70
2019-01-15T01:13:45.035Z,2.70
2019-01-15T01:14:48.579Z,2.70
2019-01-15T01:15:52.117Z,2.70
2019-01-15T01:16:55.702Z,2.70
2019-01-15T01:17:59.246Z,2.70
2019-01-15T01:19:02.794Z,2.70
2019-01-15T01:20:09.680Z,2.70
2019-01-15T01:21:13.266Z,2.70
2019-01-15T01:22:16.875Z,2.70
2019-01-15T01:23:20.421Z,2.70
2019-01-15T01:24:23.962Z,2.80
2019-01-15T01:25:27.505Z,2.80
2019-01-15T01:26:31.017Z,2.80
2019-01-15T01:27:34.486Z,2.80
2019-01-15T01:28:38.026Z,2.80
2019-01-15T01:29:41.565Z,2.80
2019-01-15T01:30:45.101Z,2.80
2019-01-15T01:31:48.683Z,2.70
2019-01-15T01:32:52.495Z,2.70
2019-01-15T01:33:56.038Z,2.70
2019-01-15T01:34:59.575Z,2.80
2019-01-15T01:36:03.118Z,2.70
2019-01-15T01:37:07.475Z,2.70
2019-01-15T01:38:11.046Z,2.70
2019-01-15T01:39:14.589Z,2.70
2019-01-15T01:40:18.690Z,2.70
2019-01-15T01:41:22.163Z,2.70
2019-01-15T01:42:29.379Z,2.70
2019-01-15T01:43:30.942Z,2.70
2019-01-15T01:44:34.488Z,2.70
2019-01-15T01:45:38.024Z,2.70
2019-01-15T01:46:41.562Z,2.70
2019-01-15T01:47:46.179Z,2.60
2019-01-15T01:48:49.717Z,2.60
2019-01-15T01:49:53.255Z,2.70
2019-01-15T01:50:56.785Z,2.60
2019-01-15T01:52:00.266Z,2.60
2019-01-15T01:53:03.850Z,2.60
2019-01-15T01:54:07.395Z,2.60
2019-01-15T01:55:12.944Z,2.70
2019-01-15T01:56:16.482Z,2.70
2019-01-15T01:57:20.031Z,2.70
2019-01-15T01:58:23.621Z,2.70
2019-01-15T01:59:27.154Z,2.70
2019-01-15T02:00:30.698Z,2.70
2019-01-15T02:01:34.233Z,2.60
2019-01-15T02:02:37.773Z,2.60
2019-01-15T02:03:41.478Z,2.60
2019-01-15T02:04:44.985Z,2.60
2019-01-15T02:05:48.527Z,2.60
2019-01-15T02:06:52.066Z,2.60
2019-01-15T02:07:55.610Z,2.70
2019-01-15T02:08:59.145Z,2.70
2019-01-15T02:10:02.890Z,2.70
2019-01-15T02:11:06.427Z,2.70
2019-01-15T02:12:09.962Z,2.80
2019-01-15T02:13:13.542Z,2.70
2019-01-15T02:14:17.015Z,2.80
2019-01-15T02:15:21.994Z,2.80
2019-01-15T02:16:25.539Z,2.70
2019-01-15T02:17:29.151Z,2.70
2019-01-15T02:18:32.730Z,2.80
2019-01-15T02:19:36.310Z,2.80
2019-01-15T02:20:39.850Z,2.80
2019-01-15T02:21:43.390Z,2.80
2019-01-15T02:22:47.047Z,2.80
2019-01-15T02:23:50.585Z,2.80
2019-01-15T02:24:54.055Z,2.80
2019-01-15T02:25:57.598Z,2.80
2019-01-15T02:27:02.779Z,2.80
2019-01-15T02:28:06.370Z,2.80
2019-01-15T02:29:09.914Z,2.80
2019-01-15T02:30:16.549Z,2.80
2019-01-15T02:31:20.142Z,2.80
2019-01-15T02:32:23.614Z,2.80
2019-01-15T02:33:27.119Z,2.80
2019-01-15T02:34:30.703Z,2.80
2019-01-15T02:35:34.292Z,2.80
2019-01-15T02:36:37.826Z,2.80
2019-01-15T02:37:41.507Z,2.80
2019-01-15T02:38:45.046Z,2.80
2019-01-15T02:39:48.561Z,2.80
2019-01-15T02:40:52.142Z,2.80
2019-01-15T02:41:55.681Z,2.80
2019-01-15T02:42:59.219Z,2.80
2019-01-15T02:44:02.686Z,2.80
2019-01-15T02:45:09.570Z,2.80
2019-01-15T02:46:13.086Z,2.80
2019-01-15T02:47:16.630Z,2.80
2019-01-15T02:48:20.192Z,2.80
2019-01-15T02:49:23.726Z,2.80
2019-01-15T02:50:27.190Z,2.80
2019-01-15T02:51:30.806Z,2.80
2019-01-15T02:52:34.349Z,2.90
2019-01-15T02:53:37.897Z,2.90
2019-01-15T02:54:41.438Z,2.90
2019-01-15T02:55:44.979Z,2.90
2019-01-15T02:56:48.560Z,2.90
2019-01-15T02:57:52.097Z,2.90
2019-01-15T02:58:55.646Z,2.90
2019-01-15T02:59:59.186Z,2.90
2019-01-15T03:01:02.766Z,2.80
2019-01-15T03:02:06.386Z,2.80
2019-01-15T03:03:09.918Z,2.70
2019-01-15T03:04:13.390Z,2.80
2019-01-15T03:05:17.071Z,2.70
2019-01-15T03:06:20.675Z,2.70
2019-01-15T03:07:24.220Z,2.80
2019-01-15T03:08:27.762Z,2.80
2019-01-15T03:09:31.978Z,2.80
2019-01-15T03:10:35.440Z,2.70
2019-01-15T03:11:39.058Z,2.70
2019-01-15T03:12:44.239Z,2.70
2019-01-15T03:13:47.782Z,2.70
2019-01-15T03:14:51.336Z,2.70
2019-01-15T03:15:54.873Z,2.70
2019-01-15T03:16:58.525Z,2.70
2019-01-15T03:18:02.066Z,2.70
2019-01-15T03:19:05.614Z,2.70
2019-01-15T03:20:11.792Z,2.70
2019-01-15T03:21:15.258Z,2.80
2019-01-15T03:22:18.837Z,2.80
2019-01-15T03:23:22.371Z,2.90
2019-01-15T03:24:26.018Z,2.90
2019-01-15T03:25:29.558Z,2.90
2019-01-15T03:26:33.146Z,2.90
2019-01-15T03:27:36.758Z,2.80
2019-01-15T03:28:40.299Z,2.90
2019-01-15T03:29:43.838Z,2.90
2019-01-15T03:30:47.371Z,2.90
2019-01-15T03:31:50.965Z,2.90
2019-01-15T03:32:54.492Z,2.90
2019-01-15T03:33:58.037Z,2.90
2019-01-15T03:35:01.573Z,2.90
2019-01-15T03:36:05.190Z,2.90
2019-01-15T03:37:08.774Z,2.80
2019-01-15T03:38:12.314Z,2.90
2019-01-15T03:39:15.776Z,2.90
2019-01-15T03:40:24.078Z,2.90
2019-01-15T03:41:27.618Z,2.90
2019-01-15T03:42:31.202Z,2.90
2019-01-15T03:43:34.751Z,2.90
2019-01-15T03:44:38.393Z,2.90
2019-01-15T03:45:41.938Z,2.80
2019-01-15T03:46:45.479Z,2.90
2019-01-15T03:47:49.057Z,2.90
2019-01-15T03:48:52.526Z,2.90
2019-01-15T03:49:56.066Z,2.90
2019-01-15T03:50:59.611Z,2.90
2019-01-15T03:52:03.073Z,2.90
2019-01-15T03:53:06.725Z,2.90
2019-01-15T03:54:10.335Z,2.90
2019-01-15T03:55:15.515Z,2.90
2019-01-15T03:56:19.055Z,2.90
2019-01-15T03:57:22.587Z,2.90
2019-01-15T03:58:26.170Z,2.90
2019-01-15T03:59:29.709Z,3.00
2019-01-15T04:00:33.250Z,2.90
2019-01-15T04:01:36.789Z,2.90
2019-01-15T04:02:40.330Z,2.90
2019-01-15T04:03:43.910Z,2.90
2019-01-15T04:04:47.995Z,2.90
2019-01-15T04:05:51.530Z,3.00
2019-01-15T04:06:55.080Z,3.00
2019-01-15T04:07:58.758Z,3.00
2019-01-15T04:09:02.300Z,3.00
2019-01-15T04:10:09.311Z,3.00
2019-01-15T04:11:12.855Z,3.00
2019-01-15T04:12:16.471Z,3.00
2019-01-15T04:13:21.779Z,3.00
2019-01-15T04:14:25.204Z,3.00
2019-01-15T04:15:28.774Z,3.00
2019-01-15T04:16:32.314Z,3.00
2019-01-15T04:17:35.859Z,3.00
2019-01-15T04:18:39.402Z,3.00
2019-01-15T04:19:42.916Z,3.00
2019-01-15T04:20:46.469Z,3.00
2019-01-15T04:21:49.994Z,2.90
2019-01-15T04:22:53.536Z,2.90
2019-01-15T04:23:57.080Z,3.00
2019-01-15T04:25:00.667Z,3.00
2019-01-15T04:26:04.134Z,3.00
2019-01-15T04:27:07.693Z,3.00
2019-01-15T04:28:11.159Z,3.00
2019-01-15T04:29:14.698Z,3.00
2019-01-15T04:30:20.609Z,3.10
2019-01-15T04:31:24.146Z,3.00
2019-01-15T04:32:27.683Z,3.00
2019-01-15T04:33:31.222Z,3.10
2019-01-15T04:34:34.773Z,3.10
2019-01-15T04:35:38.375Z,3.10
2019-01-15T04:36:41.982Z,3.10
2019-01-15T04:37:45.585Z,3.10
2019-01-15T04:38:49.130Z,3.10
2019-01-15T04:39:52.675Z,3.10
2019-01-15T04:40:56.249Z,3.10
2019-01-15T04:41:59.790Z,3.10
2019-01-15T04:43:03.338Z,3.10
2019-01-15T04:44:06.949Z,3.10
2019-01-15T04:45:16.290Z,3.10
2019-01-15T04:46:19.879Z,3.10
2019-01-15T04:47:23.412Z,3.10
2019-01-15T04:48:26.951Z,3.10
2019-01-15T04:49:30.486Z,3.10
2019-01-15T04:50:33.949Z,3.10
2019-01-15T04:51:37.531Z,3.10
2019-01-15T04:52:42.643Z,3.10
2019-01-15T04:53:46.178Z,3.10
2019-01-15T04:54:49.718Z,3.20
2019-01-15T04:55:53.218Z,3.20
2019-01-15T04:56:56.753Z,3.20
2019-01-15T04:58:00.426Z,3.20
2019-01-15T04:59:03.891Z,3.20
2019-01-15T05:00:10.855Z,3.20
2019-01-15T05:01:14.438Z,3.20
2019-01-15T05:02:17.975Z,3.20
2019-01-15T05:03:21.515Z,3.20
2019-01-15T05:04:25.046Z,3.20
2019-01-15T05:05:28.509Z,3.20
2019-01-15T05:06:32.099Z,3.20
2019-01-15T05:07:35.650Z,3.20
2019-01-15T05:08:39.190Z,3.20
2019-01-15T05:09:42.726Z,3.20
2019-01-15T05:10:46.270Z,3.20
2019-01-15T05:11:49.782Z,3.20
2019-01-15T05:12:53.328Z,3.20
2019-01-15T05:13:56.870Z,3.10
2019-01-15T05:15:00.354Z,3.20
2019-01-15T05:16:03.850Z,3.20
2019-01-15T05:17:07.424Z,3.20
2019-01-15T05:18:10.966Z,3.20
2019-01-15T05:19:14.506Z,3.20
2019-01-15T05:20:19.311Z,3.30
2019-01-15T05:21:22.842Z,3.30
2019-01-15T05:22:26.358Z,3.30
2019-01-15T05:23:29.889Z,3.30
2019-01-15T05:24:33.434Z,3.30
2019-01-15T05:25:36.974Z,3.30
2019-01-15T05:26:40.516Z,3.30
2019-01-15T05:27:44.097Z,3.30
2019-01-15T05:28:47.638Z,3.30
2019-01-15T05:29:51.182Z,3.30
2019-01-15T05:30:54.790Z,3.30
2019-01-15T05:31:58.331Z,3.30
2019-01-15T05:33:01.899Z,3.30
2019-01-15T05:34:05.476Z,3.30
2019-01-15T05:35:09.146Z,3.30
2019-01-15T05:36:14.552Z,3.30
2019-01-15T05:37:17.926Z,3.30
2019-01-15T05:38:21.463Z,3.30
2019-01-15T05:39:25.004Z,3.30
2019-01-15T05:40:28.544Z,3.30
2019-01-15T05:41:32.118Z,3.30
2019-01-15T05:42:35.671Z,3.30
2019-01-15T05:43:39.258Z,3.30
2019-01-15T05:44:42.807Z,3.30
2019-01-15T05:45:46.814Z,3.30
2019-01-15T05:46:50.359Z,3.40
2019-01-15T05:47:55.371Z,3.40
2019-01-15T05:48:58.946Z,3.40
2019-01-15T05:50:02.486Z,3.40
2019-01-15T05:51:07.726Z,3.40
2019-01-15T05:52:11.263Z,3.40
2019-01-15T05:53:14.879Z,3.40
2019-01-15T05:54:18.453Z,3.40
2019-01-15T05:55:21.990Z,3.40
2019-01-15T05:56:25.590Z,3.40
2019-01-15T05:57:29.110Z,3.40
2019-01-15T05:58:32.654Z,3.40
2019-01-15T05:59:36.269Z,3.40
2019-01-15T06:00:40.131Z,3.40
2019-01-15T06:01:43.707Z,3.40
2019-01-15T06:02:47.242Z,3.40
2019-01-15T06:03:50.754Z,3.40
2019-01-15T06:04:54.291Z,3.40
2019-01-15T06:05:57.826Z,3.40
2019-01-15T06:07:01.294Z,3.40
2019-01-15T06:08:04.830Z,3.40
2019-01-15T06:09:09.573Z,3.40
2019-01-15T06:10:14.970Z,3.40
2019-01-15T06:11:18.506Z,3.40
2019-01-15T06:12:22.034Z,3.40
2019-01-15T06:13:25.507Z,3.40
2019-01-15T06:14:29.089Z,3.40
2019-01-15T06:15:32.563Z,3.40
2019-01-15T06:16:37.520Z,3.40
2019-01-15T06:17:41.236Z,3.40
2019-01-15T06:18:44.769Z,3.40
2019-01-15T06:19:48.284Z,3.50
2019-01-15T06:20:51.823Z,3.50
2019-01-15T06:21:55.369Z,3.50
2019-01-15T06:22:58.916Z,3.50
2019-01-15T06:24:02.454Z,3.50
2019-01-15T06:25:07.974Z,3.50
2019-01-15T06:26:11.442Z,3.50
2019-01-15T06:27:14.983Z,3.50
2019-01-15T06:28:18.521Z,3.50
2019-01-15T06:29:22.070Z,3.50
2019-01-15T06:30:25.926Z,3.50
2019-01-15T06:31:29.474Z,3.50
2019-01-15T06:32:33.014Z,3.50
2019-01-15T06:33:36.566Z,3.40
2019-01-15T06:34:40.086Z,3.40
2019-01-15T06:35:43.666Z,3.40
2019-01-15T06:36:47.211Z,3.40
2019-01-15T06:37:51.559Z,3.40
2019-01-15T06:38:55.160Z,3.40
2019-01-15T06:39:58.706Z,3.50
2019-01-15T06:41:02.293Z,3.40
2019-01-15T06:42:05.895Z,3.50
2019-01-15T06:43:09.445Z,3.50
2019-01-15T06:44:12.914Z,3.50
2019-01-15T06:45:24.513Z,3.50
2019-01-15T06:46:28.094Z,3.50
2019-01-15T06:47:31.558Z,3.50
2019-01-15T06:48:35.098Z,3.50
2019-01-15T06:49:38.635Z,3.50
2019-01-15T06:50:42.214Z,3.50
2019-01-15T06:51:45.751Z,3.50
2019-01-15T06:52:49.355Z,3.40
2019-01-15T06:53:52.886Z,3.50
2019-01-15T06:54:56.423Z,3.50
2019-01-15T06:56:00.033Z,3.50
2019-01-15T06:57:03.648Z,3.50
2019-01-15T06:58:07.258Z,3.50
2019-01-15T06:59:10.802Z,3.50
2019-01-15T07:00:17.249Z,3.50
2019-01-15T07:01:20.839Z,3.50
2019-01-15T07:02:24.381Z,3.50
2019-01-15T07:03:27.958Z,3.50
2019-01-15T07:04:31.490Z,3.50
2019-01-15T07:05:35.029Z,3.50
2019-01-15T07:06:38.613Z,3.50
2019-01-15T07:07:42.223Z,3.50
2019-01-15T07:08:45.758Z,3.50
2019-01-15T07:09:49.306Z,3.50
2019-01-15T07:10:52.859Z,3.50
2019-01-15T07:11:56.434Z,3.50
2019-01-15T07:12:59.893Z,3.40
2019-01-15T07:14:03.362Z,3.40
2019-01-15T07:15:07.541Z,3.40
2019-01-15T07:16:11.170Z,3.50
2019-01-15T07:17:14.678Z,3.50
2019-01-15T07:18:18.142Z,3.50
2019-01-15T07:19:21.743Z,3.60
2019-01-15T07:20:25.291Z,3.50
2019-01-15T07:21:28.898Z,3.50
2019-01-15T07:22:32.439Z,3.50
2019-01-15T07:23:35.979Z,3.60
2019-01-15T07:24:39.557Z,3.60
2019-01-15T07:25:43.098Z,3.60
2019-01-15T07:26:46.639Z,3.60
2019-01-15T07:27:50.179Z,3.60
2019-01-15T07:28:53.751Z,3.60
2019-01-15T07:29:57.358Z,3.60
2019-01-15T07:31:00.970Z,3.60
2019-01-15T07:32:04.586Z,3.60
2019-01-15T07:33:08.254Z,3.70
2019-01-15T07:34:11.805Z,3.70
2019-01-15T07:35:15.337Z,3.70
2019-01-15T07:36:18.801Z,3.70
2019-01-15T07:37:22.270Z,3.60
2019-01-15T07:38:25.842Z,3.60
2019-01-15T07:39:29.386Z,3.70
2019-01-15T07:40:32.930Z,3.70
2019-01-15T07:41:36.458Z,3.70
2019-01-15T07:42:40.046Z,3.70
2019-01-15T07:43:43.514Z,3.70
2019-01-15T07:44:47.055Z,3.70
2019-01-15T07:45:50.666Z,3.70
2019-01-15T07:46:54.273Z,3.70
2019-01-15T07:47:57.777Z,3.70
2019-01-15T07:49:01.254Z,3.70
2019-01-15T07:50:13.659Z,3.70
2019-01-15T07:51:17.198Z,3.80
2019-01-15T07:52:21.611Z,3.80
2019-01-15T07:53:25.321Z,3.70
2019-01-15T07:54:28.785Z,3.80
2019-01-15T07:55:32.251Z,3.70
2019-01-15T07:56:35.792Z,3.80
2019-01-15T07:57:39.325Z,3.80
2019-01-15T07:58:42.910Z,3.80
2019-01-15T07:59:46.458Z,3.80
2019-01-15T08:00:49.994Z,3.80
2019-01-15T08:01:53.706Z,3.80
2019-01-15T08:02:57.242Z,3.80
2019-01-15T08:04:00.824Z,3.80
2019-01-15T08:05:06.598Z,3.90
2019-01-15T08:06:10.066Z,3.90
2019-01-15T08:07:13.766Z,3.90
2019-01-15T08:08:17.233Z,3.90
2019-01-15T08:09:20.802Z,3.90
2019-01-15T08:10:24.337Z,3.90
2019-01-15T08:11:27.798Z,3.90
2019-01-15T08:12:31.302Z,3.90
2019-01-15T08:13:34.833Z,3.90
2019-01-15T08:14:38.338Z,3.90
2019-01-15T08:15:41.882Z,3.90
2019-01-15T08:16:48.470Z,3.90
2019-01-15T08:17:52.039Z,3.90
2019-01-15T08:18:55.574Z,4.00
2019-01-15T08:19:59.119Z,4.00
2019-01-15T08:21:02.658Z,3.90
2019-01-15T08:22:06.171Z,4.00
2019-01-15T08:23:09.714Z,3.90
2019-01-15T08:24:13.263Z,4.00
2019-01-15T08:25:17.442Z,4.00
2019-01-15T08:26:20.985Z,4.10
2019-01-15T08:27:24.554Z,4.10
2019-01-15T08:28:28.019Z,4.10
2019-01-15T08:29:31.559Z,4.10
2019-01-15T08:30:36.606Z,4.10
2019-01-15T08:31:40.071Z,4.10
2019-01-15T08:32:43.609Z,4.10
2019-01-15T08:33:47.076Z,4.10
2019-01-15T08:34:50.610Z,4.10
2019-01-15T08:35:54.107Z,4.10
2019-01-15T08:36:57.638Z,4.10
2019-01-15T08:38:01.170Z,4.10
2019-01-15T08:39:07.007Z,4.20
2019-01-15T08:40:13.192Z,4.20
2019-01-15T08:41:16.734Z,4.20
2019-01-15T08:42:20.274Z,4.20
2019-01-15T08:43:23.779Z,4.20
2019-01-15T08:44:27.973Z,4.10
2019-01-15T08:45:31.433Z,4.10
2019-01-15T08:46:35.035Z,4.10
2019-01-15T08:47:40.213Z,4.10
2019-01-15T08:48:43.829Z,4.10
2019-01-15T08:49:47.369Z,4.10
2019-01-15T08:50:51.779Z,4.20
2019-01-15T08:51:55.358Z,4.20
2019-01-15T08:52:58.823Z,4.20
2019-01-15T08:54:02.429Z,4.10
2019-01-15T08:55:07.130Z,4.20
2019-01-15T08:56:10.757Z,4.20
2019-01-15T08:57:14.261Z,4.20
2019-01-15T08:58:17.806Z,4.20
2019-01-15T08:59:21.346Z,4.20
2019-01-15T09:00:24.881Z,4.20
2019-01-15T09:01:28.347Z,4.20
2019-01-15T09:02:31.932Z,4.20
2019-01-15T09:03:35.470Z,4.30
2019-01-15T09:04:38.938Z,4.20
2019-01-15T09:05:42.472Z,4.30
2019-01-15T09:06:46.006Z,4.20
2019-01-15T09:07:49.787Z,4.20
2019-01-15T09:08:53.317Z,4.20
2019-01-15T09:09:56.782Z,4.20
2019-01-15T09:11:00.318Z,4.20
2019-01-15T09:12:04.034Z,4.20
2019-01-15T09:13:07.693Z,4.20
2019-01-15T09:14:11.234Z,4.20
2019-01-15T09:15:20.339Z,4.20
2019-01-15T09:16:23.873Z,4.20
2019-01-15T09:17:27.418Z,4.10
2019-01-15T09:18:30.998Z,4.20
2019-01-15T09:19:34.536Z,4.20
2019-01-15T09:20:38.080Z,4.20
2019-01-15T09:21:41.620Z,4.20
2019-01-15T09:22:45.306Z,4.20
2019-01-15T09:23:48.881Z,4.20
2019-01-15T09:24:52.419Z,4.20
2019-01-15T09:25:55.961Z,4.20
2019-01-15T09:26:59.497Z,4.10
2019-01-15T09:28:03.034Z,4.10
2019-01-15T09:29:06.610Z,4.10
2019-01-15T09:30:13.206Z,4.10
2019-01-15T09:31:16.751Z,4.00
2019-01-15T09:32:20.290Z,4.00
2019-01-15T09:33:23.836Z,4.00
2019-01-15T09:34:27.378Z,4.00
2019-01-15T09:35:30.962Z,4.00
2019-01-15T09:36:34.427Z,4.00
2019-01-15T09:37:38.797Z,4.00
2019-01-15T09:38:42.474Z,3.90
2019-01-15T09:39:46.123Z,3.90
2019-01-15T09:40:49.702Z,3.90
2019-01-15T09:41:53.242Z,3.90
2019-01-15T09:42:56.786Z,3.90
2019-01-15T09:44:00.326Z,3.90
2019-01-15T09:45:04.833Z,3.90
2019-01-15T09:46:08.431Z,3.90
2019-01-15T09:47:12.042Z,3.90
2019-01-15T09:48:15.922Z,3.90
2019-01-15T09:49:19.461Z,3.90
2019-01-15T09:50:23.006Z,3.90
2019-01-15T09:51:26.585Z,4.00
2019-01-15T09:52:30.094Z,4.00
2019-01-15T09:53:33.638Z,4.00
2019-01-15T09:54:37.178Z,3.90
2019-01-15T09:55:40.793Z,3.90
2019-01-15T09:56:44.342Z,3.90
2019-01-15T09:57:47.918Z,3.90
2019-01-15T09:58:51.510Z,3.90
2019-01-15T09:59:55.050Z,3.90
2019-01-15T10:00:58.662Z,3.90
2019-01-15T10:02:02.208Z,3.90
2019-01-15T10:03:05.747Z,3.90
2019-01-15T10:04:09.266Z,3.90
2019-01-15T10:05:13.143Z,3.80
2019-01-15T10:06:16.690Z,3.80
2019-01-15T10:07:20.230Z,3.90
2019-01-15T10:08:23.767Z,3.90
2019-01-15T10:09:27.358Z,3.90
2019-01-15T10:10:30.903Z,3.90
2019-01-15T10:11:34.443Z,3.90
2019-01-15T10:12:38.091Z,3.90
2019-01-15T10:13:41.559Z,3.90
2019-01-15T10:14:45.149Z,3.90
2019-01-15T10:15:48.822Z,4.00
2019-01-15T10:16:52.362Z,4.00
2019-01-15T10:17:55.908Z,3.90
2019-01-15T10:18:59.454Z,4.00
2019-01-15T10:20:03.171Z,4.00
2019-01-15T10:21:06.804Z,4.00
2019-01-15T10:22:10.458Z,4.00
2019-01-15T10:23:13.998Z,3.90
2019-01-15T10:24:17.544Z,4.00
2019-01-15T10:25:25.545Z,4.00
2019-01-15T10:26:29.077Z,4.00
2019-01-15T10:27:32.741Z,4.00
2019-01-15T10:28:36.286Z,4.00
2019-01-15T10:29:39.843Z,4.00
2019-01-15T10:30:49.801Z,4.00
2019-01-15T10:32:31.220Z,4.00
2019-01-15T10:33:37.886Z,4.10
2019-01-15T10:34:42.853Z,4.00
2019-01-15T10:35:51.770Z,4.00
2019-01-15T10:36:54.230Z,4.00
2019-01-15T10:37:57.777Z,4.00
2019-01-15T10:39:01.359Z,4.10
2019-01-15T10:40:06.650Z,4.10
2019-01-15T10:41:10.257Z,4.10
2019-01-15T10:42:13.790Z,4.00
2019-01-15T10:43:17.340Z,4.10
2019-01-15T10:44:20.949Z,4.10
2019-01-15T10:45:24.530Z,4.10
2019-01-15T10:46:31.986Z,4.10
2019-01-15T10:47:33.261Z,4.10
2019-01-15T10:48:36.814Z,4.10
2019-01-15T10:49:40.373Z,4.10
2019-01-15T10:50:43.950Z,4.10
2019-01-15T10:51:47.500Z,4.10
2019-01-15T10:52:51.038Z,4.10
2019-01-15T10:53:54.582Z,4.20
2019-01-15T10:54:58.121Z,4.20
2019-01-15T10:56:01.699Z,4.10
2019-01-15T10:57:05.273Z,4.10
2019-01-15T10:58:08.742Z,4.20
2019-01-15T10:59:12.313Z,4.20
2019-01-15T11:00:15.862Z,4.20
2019-01-15T11:01:19.443Z,4.20
2019-01-15T11:02:22.981Z,4.20
2019-01-15T11:03:26.521Z,4.20
2019-01-15T11:04:30.086Z,4.20
2019-01-15T11:05:33.694Z,4.20
2019-01-15T11:06:37.282Z,4.20
2019-01-15T11:07:40.825Z,4.30
2019-01-15T11:08:44.366Z,4.30
2019-01-15T11:09:47.917Z,4.30
2019-01-15T11:10:51.466Z,4.30
2019-01-15T11:11:55.029Z,4.30
2019-01-15T11:12:58.493Z,4.40
2019-01-15T11:14:01.963Z,4.40
2019-01-15T11:15:08.317Z,4.40
2019-01-15T11:16:11.882Z,4.50
2019-01-15T11:17:15.421Z,4.50
2019-01-15T11:18:19.074Z,4.50
2019-01-15T11:19:22.615Z,4.50
2019-01-15T11:20:26.226Z,4.50
2019-01-15T11:21:29.774Z,4.60
2019-01-15T11:22:33.314Z,4.60
2019-01-15T11:23:37.797Z,4.70
2019-01-15T11:24:41.591Z,4.70
2019-01-15T11:25:45.690Z,4.70
2019-01-15T11:26:49.699Z,4.80
2019-01-15T11:27:53.793Z,4.70
2019-01-15T11:28:57.794Z,4.80
2019-01-15T11:30:01.693Z,4.90
2019-01-15T11:31:05.696Z,5.00
2019-01-15T11:32:10.784Z,5.00
2019-01-15T11:33:14.911Z,5.10
2019-01-15T11:34:18.924Z,5.20
2019-01-15T11:35:22.962Z,5.20
2019-01-15T11:36:27.010Z,5.20
2019-01-15T11:37:31.331Z,5.30
2019-01-15T11:38:35.577Z,5.40
2019-01-15T11:39:39.624Z,5.40
2019-01-15T11:40:43.703Z,5.40
2019-01-15T11:41:47.703Z,5.40
2019-01-15T11:42:51.729Z,5.50
2019-01-15T11:43:55.718Z,5.40
2019-01-15T11:45:03.431Z,5.50
2019-01-15T11:46:05.354Z,5.50
2019-01-15T11:47:09.177Z,5.50
2019-01-15T11:48:14.299Z,5.50
2019-01-15T11:49:18.301Z,5.50
2019-01-15T11:50:22.980Z,5.50
2019-01-15T11:51:26.966Z,5.50
2019-01-15T11:52:30.471Z,5.60
2019-01-15T11:53:34.507Z,5.60
2019-01-15T11:54:38.503Z,5.60
2019-01-15T11:55:42.549Z,5.60
2019-01-15T11:56:46.593Z,5.60
2019-01-15T11:57:50.708Z,5.60
2019-01-15T11:58:54.977Z,5.70
2019-01-15T11:59:58.850Z,5.70
2019-01-15T12:01:04.449Z,5.70
2019-01-15T12:02:10.086Z,5.70
2019-01-15T12:03:19.271Z,5.70
2019-01-15T12:04:27.484Z,5.70
2019-01-15T12:05:33.143Z,5.60
2019-01-15T12:06:44.520Z,5.60
2019-01-15T12:07:59.068Z,5.60
2019-01-15T12:09:20.564Z,5.60
2019-01-15T12:10:31.988Z,5.60
2019-01-15T12:11:43.414Z,5.60
2019-01-15T12:12:51.927Z,5.60
2019-01-15T12:14:00.206Z,5.60
2019-01-15T12:15:10.768Z,5.50
2019-01-15T12:16:29.797Z,5.50
2019-01-15T12:17:35.319Z,5.50
2019-01-15T12:18:55.756Z,5.50
2019-01-15T12:20:13.258Z,5.50
2019-01-15T12:21:18.906Z,5.50
2019-01-15T12:22:39.701Z,5.50
2019-01-15T12:24:00.177Z,5.40
2019-01-15T12:25:09.706Z,5.40
2019-01-15T12:26:31.225Z,5.40
2019-01-15T12:27:51.675Z,5.40
2019-01-15T12:29:06.361Z,5.40
2019-01-15T12:30:17.836Z,5.30
2019-01-15T12:31:38.327Z,5.40
2019-01-15T12:32:52.524Z,5.40
2019-01-15T12:34:06.868Z,5.40
2019-01-15T12:35:28.722Z,5.40
2019-01-15T12:36:42.861Z,5.40
2019-01-15T12:37:54.284Z,5.30
2019-01-15T12:39:05.609Z,5.40
2019-01-15T12:40:14.957Z,5.40
2019-01-15T12:41:20.673Z,5.30
2019-01-15T12:42:26.307Z,5.40
2019-01-15T12:43:34.829Z,5.40
2019-01-15T12:44:56.211Z,5.30
2019-01-15T12:46:07.687Z,5.30
2019-01-15T12:47:18.968Z,5.40
2019-01-15T12:48:42.526Z,5.40
2019-01-15T12:49:48.009Z,5.40
2019-01-15T12:51:02.556Z,5.40
2019-01-15T12:52:16.937Z,5.40
2019-01-15T12:53:38.847Z,5.40
2019-01-15T12:54:47.475Z,5.40
2019-01-15T12:56:04.792Z,5.40
2019-01-15T12:57:26.329Z,5.40
2019-01-15T12:58:34.482Z,5.40
2019-01-15T12:59:54.897Z,5.40
2019-01-15T13:01:00.378Z,5.40
2019-01-15T13:02:14.425Z,5.40
2019-01-15T13:03:25.893Z,5.40
2019-01-15T13:04:47.482Z,5.40
2019-01-15T13:05:55.391Z,5.40
2019-01-15T13:07:09.596Z,5.40
2019-01-15T13:08:23.618Z,5.50
2019-01-15T13:09:28.802Z,5.50
2019-01-15T13:10:50.140Z,5.40
2019-01-15T13:11:55.313Z,5.40
2019-01-15T13:13:16.838Z,5.40
2019-01-15T13:14:38.213Z,5.40
2019-01-15T13:15:46.050Z,5.40
2019-01-15T13:16:51.235Z,5.40
2019-01-15T13:18:05.206Z,5.50
2019-01-15T13:19:10.590Z,5.50
2019-01-15T13:20:16.109Z,5.50
2019-01-15T13:21:27.224Z,5.50
2019-01-15T13:22:41.378Z,5.50
2019-01-15T13:23:52.210Z,5.40
2019-01-15T13:25:13.683Z,5.50
2019-01-15T13:26:18.903Z,5.50
2019-01-15T13:27:35.855Z,5.60
2019-01-15T13:28:41.029Z,5.60
2019-01-15T13:30:04.190Z,5.60
2019-01-15T13:31:12.390Z,5.60
2019-01-15T13:32:17.498Z,5.60
2019-01-15T13:33:22.678Z,5.60
2019-01-15T13:34:27.902Z,5.60
2019-01-15T13:35:35.894Z,5.60
2019-01-15T13:36:46.887Z,5.60
2019-01-15T13:38:09.913Z,5.70
2019-01-15T13:39:18.105Z,5.70
2019-01-15T13:40:23.251Z,5.70
2019-01-15T13:41:28.426Z,5.70
2019-01-15T13:42:42.574Z,5.70
2019-01-15T13:43:56.558Z,5.70
2019-01-15T13:45:13.606Z,5.60
2019-01-15T13:46:27.678Z,5.60
2019-01-15T13:47:49.279Z,5.60
2019-01-15T13:49:00.498Z,5.60
2019-01-15T13:50:10.831Z,5.60
2019-01-15T13:51:25.161Z,5.60
2019-01-15T13:52:35.994Z,5.60
2019-01-15T13:53:56.299Z,5.60
2019-01-15T13:55:07.198Z,5.60
2019-01-15T13:56:21.510Z,5.60
2019-01-15T13:57:26.690Z,5.60
2019-01-15T13:58:44.136Z,5.60
2019-01-15T13:59:49.731Z,5.60
2019-01-15T14:00:55.383Z,5.60
2019-01-15T14:02:12.912Z,5.60
2019-01-15T14:03:24.286Z,5.60
2019-01-15T14:04:29.825Z,5.60
2019-01-15T14:05:53.704Z,5.60
2019-01-15T14:07:15.295Z,5.60
2019-01-15T14:08:23.896Z,5.70
2019-01-15T14:09:32.198Z,5.70
2019-01-15T14:10:40.667Z,5.80
2019-01-15T14:12:01.201Z,5.80
2019-01-15T14:13:09.685Z,5.80
2019-01-15T14:14:15.657Z,5.80
2019-01-15T14:15:36.445Z,5.80
2019-01-15T14:16:44.748Z,5.90
2019-01-15T14:17:50.386Z,5.90
2019-01-15T14:18:56.115Z,5.90
2019-01-15T14:20:01.794Z,5.90
2019-01-15T14:21:13.343Z,5.90
2019-01-15T14:22:18.968Z,6.00
2019-01-15T14:23:27.383Z,6.00
2019-01-15T14:24:35.942Z,6.00
2019-01-15T14:25:41.685Z,6.00
2019-01-15T14:26:55.972Z,6.10